Pagina principale
METAR-TAF:

METAR-TAF

Aeroporti :

Aeroporto di Rafha

Rafha, Arabia Saudita

latitudine: 29-37N, longitudine: 043-29E, altezza: 449 m

Osservazione

Il bollettino è stato emesso 58 minuti fa, alle 00:00 UTC
Vento 10 kt da nord-est
Temperature 30°C
Umidità 12%
Pressione 1011 hPa
Visibilità 10 km o più
nessuna nube inferiore a 1500 m e nessun cumulonembo

METAR: OERF 310000Z 04010KT CAVOK 30/M02 Q1011

Ora: 03:58 (00:58 UTC)

Previsione

Il bollettino è stato emesso 1 ora e 58 minuti fa, alle 23:00 UTC
Previsione valida dal 31 alle 00 UTC al 01 alle 06 UTC
Vento 8 kt da nord-est con raffiche fino a 18 kt
Visibilità 10 km o più
nessuna nube inferiore a 1500 m e nessun cumulonembo
Temporaneamente
dal 31 alle 04 UTC al 31 alle 14 UTC
Visibilità: 2500 m
Scaccia polvere alto
Evoluzione graduale
dal 31 alle 16 UTC al 31 alle 18 UTC
Vento 3 kt da direzioni variabili

TAF: OERF 302300Z 3100/0106 04008G18KT CAVOK TEMPO 3104/3114 2500 BLDU BECMG 3116/3118 VRB03KT

Osservazioni e previsioni meteorologiche di più di 4000 aeroporti (messaggi METAR e TAF).

Le stazioni disponibili sono rappresentate dai dischi gialli e rossi sulla carta.

Puntare il mouse per vedere il nome della stazione.

Clicca sopra per visualizzare le osservazioni e previsioni meteorologiche.

Per cambiare la mappa : fare clic sui pulsanti verdi con una croce nera per ingrandire, il pulsante verde con un trattino per diminuire, o sulla freccia verde per le mappe adiacenti.


METAR-TAF: